sensor_id;sensor_type;location;lat;lon;timestamp;temperature;humidity
62575;DHT22;70119;45.638;11.714;2024-02-14T00:00:33;4.90;53.50
62575;DHT22;70119;45.638;11.714;2024-02-14T00:02:59;5.00;53.20
62575;DHT22;70119;45.638;11.714;2024-02-14T00:05:25;5.00;53.30
62575;DHT22;70119;45.638;11.714;2024-02-14T00:07:52;5.10;53.10
62575;DHT22;70119;45.638;11.714;2024-02-14T00:10:17;5.10;53.00
62575;DHT22;70119;45.638;11.714;2024-02-14T00:12:43;5.00;52.80
62575;DHT22;70119;45.638;11.714;2024-02-14T00:15:10;5.00;52.90
62575;DHT22;70119;45.638;11.714;2024-02-14T00:17:36;4.90;53.00
62575;DHT22;70119;45.638;11.714;2024-02-14T00:20:03;4.90;52.80
62575;DHT22;70119;45.638;11.714;2024-02-14T00:22:30;4.90;52.80
62575;DHT22;70119;45.638;11.714;2024-02-14T00:24:57;4.80;52.80
62575;DHT22;70119;45.638;11.714;2024-02-14T00:27:23;4.80;53.00
62575;DHT22;70119;45.638;11.714;2024-02-14T00:29:50;4.90;52.80
62575;DHT22;70119;45.638;11.714;2024-02-14T00:32:16;4.90;52.30
62575;DHT22;70119;45.638;11.714;2024-02-14T00:34:42;4.90;51.90
62575;DHT22;70119;45.638;11.714;2024-02-14T00:37:08;4.90;51.90
62575;DHT22;70119;45.638;11.714;2024-02-14T00:39:34;4.90;52.20
62575;DHT22;70119;45.638;11.714;2024-02-14T00:41:59;4.90;52.50
62575;DHT22;70119;45.638;11.714;2024-02-14T00:44:25;4.90;52.80
62575;DHT22;70119;45.638;11.714;2024-02-14T00:46:57;4.90;53.20
62575;DHT22;70119;45.638;11.714;2024-02-14T00:49:25;4.90;53.80
62575;DHT22;70119;45.638;11.714;2024-02-14T00:51:51;4.90;54.20
62575;DHT22;70119;45.638;11.714;2024-02-14T00:54:17;4.80;52.90
62575;DHT22;70119;45.638;11.714;2024-02-14T00:56:43;4.70;52.60
62575;DHT22;70119;45.638;11.714;2024-02-14T00:59:09;4.00;57.10
62575;DHT22;70119;45.638;11.714;2024-02-14T01:01:35;3.80;57.30
62575;DHT22;70119;45.638;11.714;2024-02-14T01:04:01;4.00;56.90
62575;DHT22;70119;45.638;11.714;2024-02-14T01:06:30;4.00;56.30
62575;DHT22;70119;45.638;11.714;2024-02-14T01:08:56;3.50;58.40
62575;DHT22;70119;45.638;11.714;2024-02-14T01:11:22;3.70;57.80
62575;DHT22;70119;45.638;11.714;2024-02-14T01:13:48;3.80;57.00
62575;DHT22;70119;45.638;11.714;2024-02-14T01:16:13;3.80;56.60
62575;DHT22;70119;45.638;11.714;2024-02-14T01:18:40;3.90;56.00
62575;DHT22;70119;45.638;11.714;2024-02-14T01:21:05;4.00;55.10
62575;DHT22;70119;45.638;11.714;2024-02-14T01:23:32;3.90;55.90
62575;DHT22;70119;45.638;11.714;2024-02-14T01:25:58;3.90;56.30
62575;DHT22;70119;45.638;11.714;2024-02-14T01:28:24;4.10;55.50
62575;DHT22;70119;45.638;11.714;2024-02-14T01:30:51;4.10;54.80
62575;DHT22;70119;45.638;11.714;2024-02-14T01:33:17;4.20;54.20
62575;DHT22;70119;45.638;11.714;2024-02-14T01:35:43;4.20;54.40
62575;DHT22;70119;45.638;11.714;2024-02-14T01:38:08;4.20;54.10
62575;DHT22;70119;45.638;11.714;2024-02-14T01:40:34;4.20;53.90
62575;DHT22;70119;45.638;11.714;2024-02-14T01:43:00;4.20;53.80
62575;DHT22;70119;45.638;11.714;2024-02-14T01:45:26;4.20;53.80
62575;DHT22;70119;45.638;11.714;2024-02-14T01:47:53;4.20;53.30
62575;DHT22;70119;45.638;11.714;2024-02-14T01:50:21;4.10;53.20
62575;DHT22;70119;45.638;11.714;2024-02-14T01:52:57;4.00;53.60
62575;DHT22;70119;45.638;11.714;2024-02-14T01:55:25;4.00;54.00
62575;DHT22;70119;45.638;11.714;2024-02-14T01:57:52;4.00;54.40
62575;DHT22;70119;45.638;11.714;2024-02-14T02:00:19;4.00;54.30
62575;DHT22;70119;45.638;11.714;2024-02-14T02:02:45;3.90;54.90
62575;DHT22;70119;45.638;11.714;2024-02-14T02:05:13;4.00;54.80
62575;DHT22;70119;45.638;11.714;2024-02-14T02:07:40;4.00;54.60
62575;DHT22;70119;45.638;11.714;2024-02-14T02:10:12;4.10;54.20
62575;DHT22;70119;45.638;11.714;2024-02-14T02:12:38;4.20;54.10
62575;DHT22;70119;45.638;11.714;2024-02-14T02:15:07;4.10;53.80
62575;DHT22;70119;45.638;11.714;2024-02-14T02:17:36;4.10;53.40
62575;DHT22;70119;45.638;11.714;2024-02-14T02:20:02;4.10;52.80
62575;DHT22;70119;45.638;11.714;2024-02-14T02:22:28;4.00;53.00
62575;DHT22;70119;45.638;11.714;2024-02-14T02:24:57;4.10;53.00
62575;DHT22;70119;45.638;11.714;2024-02-14T02:27:24;4.10;53.40
62575;DHT22;70119;45.638;11.714;2024-02-14T02:29:50;4.10;53.20
62575;DHT22;70119;45.638;11.714;2024-02-14T02:32:16;4.10;53.50
62575;DHT22;70119;45.638;11.714;2024-02-14T02:34:43;4.00;53.60
62575;DHT22;70119;45.638;11.714;2024-02-14T02:37:11;4.10;53.60
62575;DHT22;70119;45.638;11.714;2024-02-14T02:39:37;4.00;53.40
62575;DHT22;70119;45.638;11.714;2024-02-14T02:42:03;4.00;53.20
62575;DHT22;70119;45.638;11.714;2024-02-14T02:44:30;3.90;52.50
62575;DHT22;70119;45.638;11.714;2024-02-14T02:46:56;3.80;52.70
62575;DHT22;70119;45.638;11.714;2024-02-14T02:49:22;3.80;53.10
62575;DHT22;70119;45.638;11.714;2024-02-14T02:51:48;3.80;53.00
62575;DHT22;70119;45.638;11.714;2024-02-14T02:54:14;3.80;53.20
62575;DHT22;70119;45.638;11.714;2024-02-14T02:56:40;3.90;53.10
62575;DHT22;70119;45.638;11.714;2024-02-14T02:59:09;3.90;53.20
62575;DHT22;70119;45.638;11.714;2024-02-14T03:01:37;4.00;53.10
62575;DHT22;70119;45.638;11.714;2024-02-14T03:04:04;3.90;53.30
62575;DHT22;70119;45.638;11.714;2024-02-14T03:06:30;3.80;53.20
62575;DHT22;70119;45.638;11.714;2024-02-14T03:08:56;3.80;52.90
62575;DHT22;70119;45.638;11.714;2024-02-14T03:11:23;3.80;52.70
62575;DHT22;70119;45.638;11.714;2024-02-14T03:13:48;3.80;52.80
62575;DHT22;70119;45.638;11.714;2024-02-14T03:16:15;3.70;52.80
62575;DHT22;70119;45.638;11.714;2024-02-14T03:18:43;3.70;52.90
62575;DHT22;70119;45.638;11.714;2024-02-14T03:21:10;3.60;53.30
62575;DHT22;70119;45.638;11.714;2024-02-14T03:23:37;3.60;53.10
62575;DHT22;70119;45.638;11.714;2024-02-14T03:26:05;3.60;52.70
62575;DHT22;70119;45.638;11.714;2024-02-14T03:28:33;3.50;52.80
62575;DHT22;70119;45.638;11.714;2024-02-14T03:30:59;3.50;53.00
62575;DHT22;70119;45.638;11.714;2024-02-14T03:33:25;3.60;53.20
62575;DHT22;70119;45.638;11.714;2024-02-14T03:35:51;3.60;53.20
62575;DHT22;70119;45.638;11.714;2024-02-14T03:38:27;3.60;53.00
62575;DHT22;70119;45.638;11.714;2024-02-14T03:40:53;3.60;52.30
62575;DHT22;70119;45.638;11.714;2024-02-14T03:43:19;3.60;52.20
62575;DHT22;70119;45.638;11.714;2024-02-14T03:45:45;3.60;52.20
62575;DHT22;70119;45.638;11.714;2024-02-14T03:48:12;3.60;52.50
62575;DHT22;70119;45.638;11.714;2024-02-14T03:50:39;3.60;52.70
62575;DHT22;70119;45.638;11.714;2024-02-14T03:53:05;3.60;52.70
62575;DHT22;70119;45.638;11.714;2024-02-14T03:55:31;3.60;52.90
62575;DHT22;70119;45.638;11.714;2024-02-14T03:57:57;3.50;52.20
62575;DHT22;70119;45.638;11.714;2024-02-14T04:00:23;3.40;53.00
62575;DHT22;70119;45.638;11.714;2024-02-14T04:02:49;3.40;53.00
62575;DHT22;70119;45.638;11.714;2024-02-14T04:05:16;3.40;53.40
62575;DHT22;70119;45.638;11.714;2024-02-14T04:07:42;3.40;53.00
62575;DHT22;70119;45.638;11.714;2024-02-14T04:10:10;3.50;53.00
62575;DHT22;70119;45.638;11.714;2024-02-14T04:12:35;3.40;53.50
62575;DHT22;70119;45.638;11.714;2024-02-14T04:15:01;3.50;53.60
62575;DHT22;70119;45.638;11.714;2024-02-14T04:17:27;3.50;53.30
62575;DHT22;70119;45.638;11.714;2024-02-14T04:19:53;3.50;53.80
62575;DHT22;70119;45.638;11.714;2024-02-14T04:22:19;3.60;53.80
62575;DHT22;70119;45.638;11.714;2024-02-14T04:24:46;3.50;53.20
62575;DHT22;70119;45.638;11.714;2024-02-14T04:27:12;3.50;53.10
62575;DHT22;70119;45.638;11.714;2024-02-14T04:29:38;3.60;53.00
62575;DHT22;70119;45.638;11.714;2024-02-14T04:32:04;3.50;53.30
62575;DHT22;70119;45.638;11.714;2024-02-14T04:34:31;3.40;54.20
62575;DHT22;70119;45.638;11.714;2024-02-14T04:36:57;3.20;52.90
62575;DHT22;70119;45.638;11.714;2024-02-14T04:39:23;3.20;54.40
62575;DHT22;70119;45.638;11.714;2024-02-14T04:41:50;3.20;54.30
62575;DHT22;70119;45.638;11.714;2024-02-14T04:44:16;3.20;54.30
62575;DHT22;70119;45.638;11.714;2024-02-14T04:46:42;3.30;54.10
62575;DHT22;70119;45.638;11.714;2024-02-14T04:49:10;3.30;54.00
62575;DHT22;70119;45.638;11.714;2024-02-14T04:51:37;3.20;54.80
62575;DHT22;70119;45.638;11.714;2024-02-14T04:54:03;3.30;54.00
62575;DHT22;70119;45.638;11.714;2024-02-14T04:56:31;3.20;54.10
62575;DHT22;70119;45.638;11.714;2024-02-14T04:58:57;3.30;54.00
62575;DHT22;70119;45.638;11.714;2024-02-14T05:01:23;3.20;53.60
62575;DHT22;70119;45.638;11.714;2024-02-14T05:03:49;3.30;53.90
62575;DHT22;70119;45.638;11.714;2024-02-14T05:06:15;3.20;53.90
62575;DHT22;70119;45.638;11.714;2024-02-14T05:08:44;3.20;54.00
62575;DHT22;70119;45.638;11.714;2024-02-14T05:11:12;3.20;54.00
62575;DHT22;70119;45.638;11.714;2024-02-14T05:13:39;3.30;53.80
62575;DHT22;70119;45.638;11.714;2024-02-14T05:16:07;3.20;53.80
62575;DHT22;70119;45.638;11.714;2024-02-14T05:18:34;3.20;53.80
62575;DHT22;70119;45.638;11.714;2024-02-14T05:21:00;3.20;53.00
62575;DHT22;70119;45.638;11.714;2024-02-14T05:23:26;3.10;52.80
62575;DHT22;70119;45.638;11.714;2024-02-14T05:25:52;3.10;53.20
62575;DHT22;70119;45.638;11.714;2024-02-14T05:28:20;3.10;53.10
62575;DHT22;70119;45.638;11.714;2024-02-14T05:30:46;3.10;53.30
62575;DHT22;70119;45.638;11.714;2024-02-14T05:33:12;3.20;52.90
62575;DHT22;70119;45.638;11.714;2024-02-14T05:35:38;3.10;52.90
62575;DHT22;70119;45.638;11.714;2024-02-14T05:38:04;3.10;53.00
62575;DHT22;70119;45.638;11.714;2024-02-14T05:40:35;3.10;53.20
62575;DHT22;70119;45.638;11.714;2024-02-14T05:43:04;3.10;53.00
62575;DHT22;70119;45.638;11.714;2024-02-14T05:45:33;3.10;53.00
62575;DHT22;70119;45.638;11.714;2024-02-14T05:47:59;3.10;53.00
62575;DHT22;70119;45.638;11.714;2024-02-14T05:50:24;3.20;52.50
62575;DHT22;70119;45.638;11.714;2024-02-14T05:52:51;3.10;52.70
62575;DHT22;70119;45.638;11.714;2024-02-14T05:55:17;3.00;52.80
62575;DHT22;70119;45.638;11.714;2024-02-14T05:57:43;2.80;53.20
62575;DHT22;70119;45.638;11.714;2024-02-14T06:00:14;2.70;53.40
62575;DHT22;70119;45.638;11.714;2024-02-14T06:02:41;2.60;54.00
62575;DHT22;70119;45.638;11.714;2024-02-14T06:05:07;2.70;53.70
62575;DHT22;70119;45.638;11.714;2024-02-14T06:07:40;2.70;53.50
62575;DHT22;70119;45.638;11.714;2024-02-14T06:10:07;2.80;53.20
62575;DHT22;70119;45.638;11.714;2024-02-14T06:12:33;2.90;53.30
62575;DHT22;70119;45.638;11.714;2024-02-14T06:15:00;2.90;53.30
62575;DHT22;70119;45.638;11.714;2024-02-14T06:17:27;2.90;52.90
62575;DHT22;70119;45.638;11.714;2024-02-14T06:19:54;2.90;52.60
62575;DHT22;70119;45.638;11.714;2024-02-14T06:22:21;2.90;52.40
62575;DHT22;70119;45.638;11.714;2024-02-14T06:24:47;3.00;52.40
62575;DHT22;70119;45.638;11.714;2024-02-14T06:27:17;3.00;52.20
62575;DHT22;70119;45.638;11.714;2024-02-14T06:29:45;3.00;52.60
62575;DHT22;70119;45.638;11.714;2024-02-14T06:32:12;3.10;52.90
62575;DHT22;70119;45.638;11.714;2024-02-14T06:34:39;3.10;52.70
62575;DHT22;70119;45.638;11.714;2024-02-14T06:37:05;3.20;52.70
62575;DHT22;70119;45.638;11.714;2024-02-14T06:39:31;3.30;52.40
62575;DHT22;70119;45.638;11.714;2024-02-14T06:41:57;3.50;52.10
62575;DHT22;70119;45.638;11.714;2024-02-14T06:44:24;3.70;51.80
62575;DHT22;70119;45.638;11.714;2024-02-14T06:46:50;4.00;51.40
62575;DHT22;70119;45.638;11.714;2024-02-14T06:49:16;4.20;50.80
62575;DHT22;70119;45.638;11.714;2024-02-14T06:51:42;4.20;50.70
62575;DHT22;70119;45.638;11.714;2024-02-14T06:54:08;4.60;50.30
62575;DHT22;70119;45.638;11.714;2024-02-14T06:56:35;4.90;49.80
62575;DHT22;70119;45.638;11.714;2024-02-14T06:59:01;5.20;49.80
62575;DHT22;70119;45.638;11.714;2024-02-14T07:01:32;5.60;49.40
62575;DHT22;70119;45.638;11.714;2024-02-14T07:03:58;5.90;48.70
62575;DHT22;70119;45.638;11.714;2024-02-14T07:06:24;6.20;48.20
62575;DHT22;70119;45.638;11.714;2024-02-14T07:08:50;6.50;46.80
62575;DHT22;70119;45.638;11.714;2024-02-14T07:11:16;6.60;46.60
62575;DHT22;70119;45.638;11.714;2024-02-14T07:13:43;6.40;46.40
62575;DHT22;70119;45.638;11.714;2024-02-14T07:16:09;6.40;47.20
62575;DHT22;70119;45.638;11.714;2024-02-14T07:18:35;6.40;47.50
62575;DHT22;70119;45.638;11.714;2024-02-14T07:21:00;6.30;47.40
62575;DHT22;70119;45.638;11.714;2024-02-14T07:23:31;6.30;47.60
62575;DHT22;70119;45.638;11.714;2024-02-14T07:26:00;6.60;47.20
62575;DHT22;70119;45.638;11.714;2024-02-14T07:28:29;7.00;47.20
62575;DHT22;70119;45.638;11.714;2024-02-14T07:30:55;7.60;46.80
62575;DHT22;70119;45.638;11.714;2024-02-14T07:33:21;8.40;45.00
62575;DHT22;70119;45.638;11.714;2024-02-14T07:35:47;9.10;43.80
62575;DHT22;70119;45.638;11.714;2024-02-14T07:38:13;9.30;42.70
62575;DHT22;70119;45.638;11.714;2024-02-14T07:40:39;9.40;42.40
62575;DHT22;70119;45.638;11.714;2024-02-14T07:43:05;10.00;42.00
62575;DHT22;70119;45.638;11.714;2024-02-14T07:45:32;10.70;40.90
62575;DHT22;70119;45.638;11.714;2024-02-14T07:47:58;11.30;40.50
62575;DHT22;70119;45.638;11.714;2024-02-14T07:50:24;12.30;40.20
62575;DHT22;70119;45.638;11.714;2024-02-14T07:52:50;13.10;38.50
62575;DHT22;70119;45.638;11.714;2024-02-14T07:55:16;13.30;37.90
62575;DHT22;70119;45.638;11.714;2024-02-14T07:57:42;13.60;37.60
62575;DHT22;70119;45.638;11.714;2024-02-14T08:00:09;13.80;37.40
62575;DHT22;70119;45.638;11.714;2024-02-14T08:02:39;13.70;37.40
62575;DHT22;70119;45.638;11.714;2024-02-14T08:05:05;13.70;37.30
62575;DHT22;70119;45.638;11.714;2024-02-14T08:07:31;13.60;38.00
62575;DHT22;70119;45.638;11.714;2024-02-14T08:09:57;13.80;37.80
62575;DHT22;70119;45.638;11.714;2024-02-14T08:12:23;13.70;37.40
62575;DHT22;70119;45.638;11.714;2024-02-14T08:14:51;13.80;37.50
62575;DHT22;70119;45.638;11.714;2024-02-14T08:17:17;13.90;37.80
62575;DHT22;70119;45.638;11.714;2024-02-14T08:19:43;13.90;37.70
62575;DHT22;70119;45.638;11.714;2024-02-14T08:22:09;14.00;37.90
62575;DHT22;70119;45.638;11.714;2024-02-14T08:24:35;14.10;37.90
62575;DHT22;70119;45.638;11.714;2024-02-14T08:27:01;14.60;37.60
62575;DHT22;70119;45.638;11.714;2024-02-14T08:29:26;14.80;37.20
62575;DHT22;70119;45.638;11.714;2024-02-14T08:31:52;15.00;36.80
62575;DHT22;70119;45.638;11.714;2024-02-14T08:34:18;15.10;36.50
62575;DHT22;70119;45.638;11.714;2024-02-14T08:36:44;15.30;36.40
62575;DHT22;70119;45.638;11.714;2024-02-14T08:39:11;15.30;36.50
62575;DHT22;70119;45.638;11.714;2024-02-14T08:41:37;15.40;36.40
62575;DHT22;70119;45.638;11.714;2024-02-14T08:44:04;15.60;36.20
62575;DHT22;70119;45.638;11.714;2024-02-14T08:46:30;15.80;35.40
62575;DHT22;70119;45.638;11.714;2024-02-14T08:48:56;15.70;35.30
62575;DHT22;70119;45.638;11.714;2024-02-14T08:51:22;15.80;35.20
62575;DHT22;70119;45.638;11.714;2024-02-14T08:53:49;16.00;35.20
62575;DHT22;70119;45.638;11.714;2024-02-14T08:56:20;16.00;35.00
62575;DHT22;70119;45.638;11.714;2024-02-14T08:58:48;16.30;35.10
62575;DHT22;70119;45.638;11.714;2024-02-14T09:01:13;16.50;35.00
62575;DHT22;70119;45.638;11.714;2024-02-14T09:03:40;16.90;34.80
62575;DHT22;70119;45.638;11.714;2024-02-14T09:06:08;17.20;34.30
62575;DHT22;70119;45.638;11.714;2024-02-14T09:08:35;17.40;33.80
62575;DHT22;70119;45.638;11.714;2024-02-14T09:11:00;17.60;33.00
62575;DHT22;70119;45.638;11.714;2024-02-14T09:13:26;17.30;33.10
62575;DHT22;70119;45.638;11.714;2024-02-14T09:15:53;17.10;33.60
62575;DHT22;70119;45.638;11.714;2024-02-14T09:18:19;17.00;33.50
62575;DHT22;70119;45.638;11.714;2024-02-14T09:20:45;16.90;33.60
62575;DHT22;70119;45.638;11.714;2024-02-14T09:23:18;17.00;33.30
62575;DHT22;70119;45.638;11.714;2024-02-14T09:25:49;17.20;32.70
62575;DHT22;70119;45.638;11.714;2024-02-14T09:28:19;17.30;32.60
62575;DHT22;70119;45.638;11.714;2024-02-14T09:30:45;17.50;32.00
62575;DHT22;70119;45.638;11.714;2024-02-14T09:33:13;17.90;31.90
62575;DHT22;70119;45.638;11.714;2024-02-14T09:35:43;18.00;31.90
62575;DHT22;70119;45.638;11.714;2024-02-14T09:38:15;18.10;31.50
62575;DHT22;70119;45.638;11.714;2024-02-14T09:40:43;18.20;30.90
62575;DHT22;70119;45.638;11.714;2024-02-14T09:43:37;18.30;31.20
62575;DHT22;70119;45.638;11.714;2024-02-14T09:46:07;18.10;28.90
62575;DHT22;70119;45.638;11.714;2024-02-14T09:48:34;18.30;30.40
62575;DHT22;70119;45.638;11.714;2024-02-14T09:51:02;18.40;30.50
62575;DHT22;70119;45.638;11.714;2024-02-14T09:53:28;18.40;29.90
62575;DHT22;70119;45.638;11.714;2024-02-14T09:55:55;18.40;29.60
62575;DHT22;70119;45.638;11.714;2024-02-14T09:58:22;18.70;29.90
62575;DHT22;70119;45.638;11.714;2024-02-14T10:00:49;18.80;29.80
62575;DHT22;70119;45.638;11.714;2024-02-14T10:03:16;18.90;29.80
62575;DHT22;70119;45.638;11.714;2024-02-14T10:05:42;18.90;29.40
62575;DHT22;70119;45.638;11.714;2024-02-14T10:08:10;19.10;29.40
62575;DHT22;70119;45.638;11.714;2024-02-14T10:10:37;19.50;29.10
62575;DHT22;70119;45.638;11.714;2024-02-14T10:13:05;19.80;28.70
62575;DHT22;70119;45.638;11.714;2024-02-14T10:15:32;19.10;26.30
62575;DHT22;70119;45.638;11.714;2024-02-14T10:17:58;19.10;28.90
62575;DHT22;70119;45.638;11.714;2024-02-14T10:20:25;19.40;28.40
62575;DHT22;70119;45.638;11.714;2024-02-14T10:22:59;19.40;28.00
62575;DHT22;70119;45.638;11.714;2024-02-14T10:25:26;19.60;27.80
62575;DHT22;70119;45.638;11.714;2024-02-14T10:27:51;19.40;24.30
62575;DHT22;70119;45.638;11.714;2024-02-14T10:30:17;19.20;25.60
62575;DHT22;70119;45.638;11.714;2024-02-14T10:32:52;19.40;27.20
62575;DHT22;70119;45.638;11.714;2024-02-14T10:35:35;19.10;25.60
62575;DHT22;70119;45.638;11.714;2024-02-14T10:38:08;17.40;25.70
62575;DHT22;70119;45.638;11.714;2024-02-14T10:40:38;17.60;27.40
62575;DHT22;70119;45.638;11.714;2024-02-14T10:43:09;18.20;26.90
62575;DHT22;70119;45.638;11.714;2024-02-14T10:45:36;18.30;26.60
62575;DHT22;70119;45.638;11.714;2024-02-14T10:48:08;17.20;24.60
62575;DHT22;70119;45.638;11.714;2024-02-14T10:50:41;17.30;25.90
62575;DHT22;70119;45.638;11.714;2024-02-14T10:53:14;17.90;26.70
62575;DHT22;70119;45.638;11.714;2024-02-14T10:55:53;18.20;25.90
62575;DHT22;70119;45.638;11.714;2024-02-14T10:58:21;17.80;26.40
62575;DHT22;70119;45.638;11.714;2024-02-14T11:00:50;17.70;25.60
62575;DHT22;70119;45.638;11.714;2024-02-14T11:03:17;16.50;27.00
62575;DHT22;70119;45.638;11.714;2024-02-14T11:05:47;17.40;27.40
62575;DHT22;70119;45.638;11.714;2024-02-14T11:08:20;17.90;27.00
62575;DHT22;70119;45.638;11.714;2024-02-14T11:11:05;18.60;26.50
62575;DHT22;70119;45.638;11.714;2024-02-14T11:13:35;18.90;25.70
62575;DHT22;70119;45.638;11.714;2024-02-14T11:16:02;17.80;25.20
62575;DHT22;70119;45.638;11.714;2024-02-14T11:18:33;18.20;26.70
62575;DHT22;70119;45.638;11.714;2024-02-14T11:20:59;19.00;26.20
62575;DHT22;70119;45.638;11.714;2024-02-14T11:23:31;19.10;26.10
62575;DHT22;70119;45.638;11.714;2024-02-14T11:26:05;19.30;26.30
62575;DHT22;70119;45.638;11.714;2024-02-14T11:28:38;19.70;25.80
62575;DHT22;70119;45.638;11.714;2024-02-14T11:31:11;20.00;25.50
62575;DHT22;70119;45.638;11.714;2024-02-14T11:33:43;20.20;26.00
62575;DHT22;70119;45.638;11.714;2024-02-14T11:36:12;19.90;22.90
62575;DHT22;70119;45.638;11.714;2024-02-14T11:38:41;19.50;25.40
62575;DHT22;70119;45.638;11.714;2024-02-14T11:41:07;18.80;26.10
62575;DHT22;70119;45.638;11.714;2024-02-14T11:43:35;17.40;25.90
62575;DHT22;70119;45.638;11.714;2024-02-14T11:46:03;18.10;26.80
62575;DHT22;70119;45.638;11.714;2024-02-14T11:48:30;18.40;26.30
62575;DHT22;70119;45.638;11.714;2024-02-14T11:50:57;18.60;26.10
62575;DHT22;70119;45.638;11.714;2024-02-14T11:53:23;19.00;26.40
62575;DHT22;70119;45.638;11.714;2024-02-14T11:55:50;19.40;26.40
62575;DHT22;70119;45.638;11.714;2024-02-14T11:58:17;19.60;26.10
62575;DHT22;70119;45.638;11.714;2024-02-14T12:00:45;19.70;26.00
62575;DHT22;70119;45.638;11.714;2024-02-14T12:03:22;19.60;25.60
62575;DHT22;70119;45.638;11.714;2024-02-14T12:05:54;19.20;25.90
62575;DHT22;70119;45.638;11.714;2024-02-14T12:08:28;19.40;26.40
62575;DHT22;70119;45.638;11.714;2024-02-14T12:11:03;19.70;26.30
62575;DHT22;70119;45.638;11.714;2024-02-14T12:13:31;19.50;26.20
62575;DHT22;70119;45.638;11.714;2024-02-14T12:16:06;19.70;26.10
62575;DHT22;70119;45.638;11.714;2024-02-14T12:18:37;19.30;26.00
62575;DHT22;70119;45.638;11.714;2024-02-14T12:21:07;19.70;25.90
62575;DHT22;70119;45.638;11.714;2024-02-14T12:23:38;19.70;25.10
62575;DHT22;70119;45.638;11.714;2024-02-14T12:26:05;19.00;26.70
62575;DHT22;70119;45.638;11.714;2024-02-14T12:28:35;18.70;27.30
62575;DHT22;70119;45.638;11.714;2024-02-14T12:31:05;18.50;26.60
62575;DHT22;70119;45.638;11.714;2024-02-14T12:33:32;18.40;27.50
62575;DHT22;70119;45.638;11.714;2024-02-14T12:36:01;18.20;27.80
62575;DHT22;70119;45.638;11.714;2024-02-14T12:38:29;18.10;27.70
62575;DHT22;70119;45.638;11.714;2024-02-14T12:41:00;18.10;27.30
62575;DHT22;70119;45.638;11.714;2024-02-14T12:43:29;17.90;27.90
62575;DHT22;70119;45.638;11.714;2024-02-14T12:46:00;18.20;27.70
62575;DHT22;70119;45.638;11.714;2024-02-14T12:48:31;18.10;28.00
62575;DHT22;70119;45.638;11.714;2024-02-14T12:50:57;18.50;27.80
62575;DHT22;70119;45.638;11.714;2024-02-14T12:53:26;18.90;27.50
62575;DHT22;70119;45.638;11.714;2024-02-14T12:55:58;19.00;27.40
62575;DHT22;70119;45.638;11.714;2024-02-14T12:58:35;19.10;27.20
62575;DHT22;70119;45.638;11.714;2024-02-14T13:01:06;19.60;26.90
62575;DHT22;70119;45.638;11.714;2024-02-14T13:03:37;19.60;27.10
62575;DHT22;70119;45.638;11.714;2024-02-14T13:06:06;19.40;27.60
62575;DHT22;70119;45.638;11.714;2024-02-14T13:08:32;19.00;27.80
62575;DHT22;70119;45.638;11.714;2024-02-14T13:10:59;18.80;28.40
62575;DHT22;70119;45.638;11.714;2024-02-14T13:13:30;18.90;28.30
62575;DHT22;70119;45.638;11.714;2024-02-14T13:15:58;19.10;28.30
62575;DHT22;70119;45.638;11.714;2024-02-14T13:18:24;19.60;27.90
62575;DHT22;70119;45.638;11.714;2024-02-14T13:20:50;19.50;28.00
62575;DHT22;70119;45.638;11.714;2024-02-14T13:23:23;19.40;28.00
62575;DHT22;70119;45.638;11.714;2024-02-14T13:25:50;18.80;28.10
62575;DHT22;70119;45.638;11.714;2024-02-14T13:28:17;17.90;28.70
62575;DHT22;70119;45.638;11.714;2024-02-14T13:30:44;17.40;29.30
62575;DHT22;70119;45.638;11.714;2024-02-14T13:33:14;16.70;29.90
62575;DHT22;70119;45.638;11.714;2024-02-14T13:35:40;16.20;31.00
62575;DHT22;70119;45.638;11.714;2024-02-14T13:38:06;15.60;31.60
62575;DHT22;70119;45.638;11.714;2024-02-14T13:40:33;16.00;31.40
62575;DHT22;70119;45.638;11.714;2024-02-14T13:43:03;16.40;30.90
62575;DHT22;70119;45.638;11.714;2024-02-14T13:45:43;16.80;30.50
62575;DHT22;70119;45.638;11.714;2024-02-14T13:48:09;17.10;29.90
62575;DHT22;70119;45.638;11.714;2024-02-14T13:50:37;17.10;30.20
62575;DHT22;70119;45.638;11.714;2024-02-14T13:53:07;16.60;30.60
62575;DHT22;70119;45.638;11.714;2024-02-14T13:55:33;16.90;30.60
62575;DHT22;70119;45.638;11.714;2024-02-14T13:57:59;16.10;31.10
62575;DHT22;70119;45.638;11.714;2024-02-14T14:00:27;16.20;30.80
62575;DHT22;70119;45.638;11.714;2024-02-14T14:02:55;16.50;31.00
62575;DHT22;70119;45.638;11.714;2024-02-14T14:05:21;16.20;31.30
62575;DHT22;70119;45.638;11.714;2024-02-14T14:07:47;16.20;31.70
62575;DHT22;70119;45.638;11.714;2024-02-14T14:10:13;16.20;32.00
62575;DHT22;70119;45.638;11.714;2024-02-14T14:12:43;16.40;31.70
62575;DHT22;70119;45.638;11.714;2024-02-14T14:15:12;16.10;31.60
62575;DHT22;70119;45.638;11.714;2024-02-14T14:17:39;16.10;31.80
62575;DHT22;70119;45.638;11.714;2024-02-14T14:20:07;16.40;31.50
62575;DHT22;70119;45.638;11.714;2024-02-14T14:22:36;16.60;31.20
62575;DHT22;70119;45.638;11.714;2024-02-14T14:25:05;16.70;30.90
62575;DHT22;70119;45.638;11.714;2024-02-14T14:27:34;16.70;30.80
62575;DHT22;70119;45.638;11.714;2024-02-14T14:30:00;17.00;30.80
62575;DHT22;70119;45.638;11.714;2024-02-14T14:32:26;17.10;30.90
62575;DHT22;70119;45.638;11.714;2024-02-14T14:34:53;16.60;31.20
62575;DHT22;70119;45.638;11.714;2024-02-14T14:37:23;16.50;31.30
62575;DHT22;70119;45.638;11.714;2024-02-14T14:39:52;16.50;32.10
62575;DHT22;70119;45.638;11.714;2024-02-14T14:42:21;16.50;32.00
62575;DHT22;70119;45.638;11.714;2024-02-14T14:44:47;16.20;32.40
62575;DHT22;70119;45.638;11.714;2024-02-14T14:47:13;16.10;32.50
62575;DHT22;70119;45.638;11.714;2024-02-14T14:49:39;16.10;32.40
62575;DHT22;70119;45.638;11.714;2024-02-14T14:52:05;15.90;32.30
62575;DHT22;70119;45.638;11.714;2024-02-14T14:54:31;15.90;32.50
62575;DHT22;70119;45.638;11.714;2024-02-14T14:56:56;15.40;33.20
62575;DHT22;70119;45.638;11.714;2024-02-14T14:59:22;15.30;33.40
62575;DHT22;70119;45.638;11.714;2024-02-14T15:01:49;15.40;33.20
62575;DHT22;70119;45.638;11.714;2024-02-14T15:04:16;15.50;33.20
62575;DHT22;70119;45.638;11.714;2024-02-14T15:06:42;15.20;33.70
62575;DHT22;70119;45.638;11.714;2024-02-14T15:09:08;15.10;34.40
62575;DHT22;70119;45.638;11.714;2024-02-14T15:11:34;15.10;34.00
62575;DHT22;70119;45.638;11.714;2024-02-14T15:14:00;15.10;34.10
62575;DHT22;70119;45.638;11.714;2024-02-14T15:16:26;14.80;34.70
62575;DHT22;70119;45.638;11.714;2024-02-14T15:18:52;14.40;35.30
62575;DHT22;70119;45.638;11.714;2024-02-14T15:21:18;14.40;34.80
62575;DHT22;70119;45.638;11.714;2024-02-14T15:23:45;14.20;35.10